Aviation Digital Data Service (ADDS)

Output produced by METARs form (0339 UTC 26 April 2019)
found at http://www.aviationweather.gov/metar/data/
 
METAR text: ZYCC 260300Z 01004G09MPS 330V080 9999 SCT030 14/M08 Q1018 NOSIG
Conditions at: ZYCC (CHANGCHUN , CN) observed 0300 UTC 26 April 2019
Temperature: 14.0°C (57°F)
Dewpoint: -8.0°C (18°F) [RH = 21%]
Pressure (altimeter): 30.06 inches Hg (1018.0 mb)
Winds: from the N (10 degrees) at 9 MPH (8 knots; 4.1 m/s)
gusting to 20 MPH (17 knots; 8.7 m/s)
Visibility: 6 or more miles (10+ km)
Ceiling: at least 12,000 feet AGL
Clouds: scattered clouds at 3000 feet AGL
Weather: no significant weather observed at this time

METAR text: ZYCC 260200Z 03004MPS 340V100 CAVOK 13/M07 Q1018 NOSIG
Conditions at: ZYCC (CHANGCHUN , CN) observed 0200 UTC 26 April 2019
Temperature: 13.0°C (55°F)
Dewpoint: -7.0°C (19°F) [RH = 24%]
Pressure (altimeter): 30.06 inches Hg (1018.0 mb)
Winds: from the NNE (30 degrees) at 9 MPH (8 knots; 4.1 m/s)
Visibility: 6 or more miles (10+ km)
Ceiling: ceiling and visibility are OK
Clouds: unknown
Weather: no significant weather observed at this time

METAR text: ZYCC 260100Z 04003MPS 320V090 CAVOK 11/M06 Q1018 NOSIG
Conditions at: ZYCC (CHANGCHUN , CN) observed 0100 UTC 26 April 2019
Temperature: 11.0°C (52°F)
Dewpoint: -6.0°C (21°F) [RH = 30%]
Pressure (altimeter): 30.06 inches Hg (1018.0 mb)
Winds: from the NE (40 degrees) at 7 MPH (6 knots; 3.1 m/s)
Visibility: 6 or more miles (10+ km)
Ceiling: ceiling and visibility are OK
Clouds: unknown
Weather: no significant weather observed at this time

METAR text: ZYCC 260000Z 05004MPS 360V070 CAVOK 08/M05 Q1018 NOSIG
Conditions at: ZYCC (CHANGCHUN , CN) observed 0000 UTC 26 April 2019
Temperature: 8.0°C (46°F)
Dewpoint: -5.0°C (23°F) [RH = 39%]
Pressure (altimeter): 30.06 inches Hg (1018.0 mb)
Winds: from the NE (50 degrees) at 9 MPH (8 knots; 4.1 m/s)
Visibility: 6 or more miles (10+ km)
Ceiling: ceiling and visibility are OK
Clouds: unknown
Weather: no significant weather observed at this time

METAR text: ZYCC 252300Z 03002MPS 320V060 CAVOK 06/M05 Q1017 NOSIG
Conditions at: ZYCC (CHANGCHUN , CN) observed 2300 UTC 25 April 2019
Temperature: 6.0°C (43°F)
Dewpoint: -5.0°C (23°F) [RH = 45%]
Pressure (altimeter): 30.03 inches Hg (1017.0 mb)
Winds: from the NNE (30 degrees) at 5 MPH (4 knots; 2.1 m/s)
Visibility: 6 or more miles (10+ km)
Ceiling: ceiling and visibility are OK
Clouds: unknown
Weather: no significant weather observed at this time

METAR text: ZYCC 252200Z 33001MPS CAVOK 01/M06 Q1017 NOSIG
Conditions at: ZYCC (CHANGCHUN , CN) observed 2200 UTC 25 April 2019
Temperature: 1.0°C (34°F)
Dewpoint: -6.0°C (21°F) [RH = 59%]
Pressure (altimeter): 30.03 inches Hg (1017.0 mb)
Winds: from the NNW (330 degrees) at 2 MPH (2 knots; 1.0 m/s)
Visibility: 6 or more miles (10+ km)
Ceiling: ceiling and visibility are OK
Clouds: unknown
Weather: no significant weather observed at this time

METAR text: ZYCC 252100Z 32001MPS CAVOK M00/M06 Q1017 NOSIG
Conditions at: ZYCC (CHANGCHUN , CN) observed 2100 UTC 25 April 2019
Temperature: 0.0°C (32°F)
Dewpoint: -6.0°C (21°F) [RH = 64%]
Pressure (altimeter): 30.03 inches Hg (1017.0 mb)
Winds: from the NW (320 degrees) at 2 MPH (2 knots; 1.0 m/s)
Visibility: 6 or more miles (10+ km)
Ceiling: ceiling and visibility are OK
Clouds: unknown
Weather: no significant weather observed at this time

METAR text: ZYCC 252000Z 30001MPS CAVOK 00/M07 Q1016 NOSIG
Conditions at: ZYCC (CHANGCHUN , CN) observed 2000 UTC 25 April 2019
Temperature: 0.0°C (32°F)
Dewpoint: -7.0°C (19°F) [RH = 59%]
Pressure (altimeter): 30.00 inches Hg (1016.0 mb)
Winds: from the WNW (300 degrees) at 2 MPH (2 knots; 1.0 m/s)
Visibility: 6 or more miles (10+ km)
Ceiling: ceiling and visibility are OK
Clouds: unknown
Weather: no significant weather observed at this time

METAR text: ZYCC 251900Z 32001MPS CAVOK 01/M07 Q1016 NOSIG
Conditions at: ZYCC (CHANGCHUN , CN) observed 1900 UTC 25 April 2019
Temperature: 1.0°C (34°F)
Dewpoint: -7.0°C (19°F) [RH = 55%]
Pressure (altimeter): 30.00 inches Hg (1016.0 mb)
Winds: from the NW (320 degrees) at 2 MPH (2 knots; 1.0 m/s)
Visibility: 6 or more miles (10+ km)
Ceiling: ceiling and visibility are OK
Clouds: unknown
Weather: no significant weather observed at this time

METAR text: ZYCC 251800Z 33001MPS CAVOK 02/M07 Q1015 NOSIG
Conditions at: ZYCC (CHANGCHUN , CN) observed 1800 UTC 25 April 2019
Temperature: 2.0°C (36°F)
Dewpoint: -7.0°C (19°F) [RH = 51%]
Pressure (altimeter): 29.97 inches Hg (1015.0 mb)
Winds: from the NNW (330 degrees) at 2 MPH (2 knots; 1.0 m/s)
Visibility: 6 or more miles (10+ km)
Ceiling: ceiling and visibility are OK
Clouds: unknown
Weather: no significant weather observed at this time

METAR text: ZYCC 251700Z 34001MPS CAVOK 02/M08 Q1015 NOSIG
Conditions at: ZYCC (CHANGCHUN , CN) observed 1700 UTC 25 April 2019
Temperature: 2.0°C (36°F)
Dewpoint: -8.0°C (18°F) [RH = 47%]
Pressure (altimeter): 29.97 inches Hg (1015.0 mb)
Winds: from the NNW (340 degrees) at 2 MPH (2 knots; 1.0 m/s)
Visibility: 6 or more miles (10+ km)
Ceiling: ceiling and visibility are OK
Clouds: unknown
Weather: no significant weather observed at this time

METAR text: ZYCC 251600Z 01002MPS CAVOK 03/M08 Q1015 NOSIG
Conditions at: ZYCC (CHANGCHUN , CN) observed 1600 UTC 25 April 2019
Temperature: 3.0°C (37°F)
Dewpoint: -8.0°C (18°F) [RH = 44%]
Pressure (altimeter): 29.97 inches Hg (1015.0 mb)
Winds: from the N (10 degrees) at 5 MPH (4 knots; 2.1 m/s)
Visibility: 6 or more miles (10+ km)
Ceiling: ceiling and visibility are OK
Clouds: unknown
Weather: no significant weather observed at this time

METAR text: ZYCC 251500Z 02002MPS CAVOK 05/M09 Q1015 NOSIG
Conditions at: ZYCC (CHANGCHUN , CN) observed 1500 UTC 25 April 2019
Temperature: 5.0°C (41°F)
Dewpoint: -9.0°C (16°F) [RH = 35%]
Pressure (altimeter): 29.97 inches Hg (1015.0 mb)
Winds: from the NNE (20 degrees) at 5 MPH (4 knots; 2.1 m/s)
Visibility: 6 or more miles (10+ km)
Ceiling: ceiling and visibility are OK
Clouds: unknown
Weather: no significant weather observed at this time

METAR text: ZYCC 251400Z 02001MPS CAVOK 05/M10 Q1015 NOSIG
Conditions at: ZYCC (CHANGCHUN , CN) observed 1400 UTC 25 April 2019
Temperature: 5.0°C (41°F)
Dewpoint: -10.0°C (14°F) [RH = 33%]
Pressure (altimeter): 29.97 inches Hg (1015.0 mb)
Winds: from the NNE (20 degrees) at 2 MPH (2 knots; 1.0 m/s)
Visibility: 6 or more miles (10+ km)
Ceiling: ceiling and visibility are OK
Clouds: unknown
Weather: no significant weather observed at this time

METAR text: ZYCC 251300Z 36002MPS CAVOK 05/M09 Q1015 NOSIG
Conditions at: ZYCC (CHANGCHUN , CN) observed 1300 UTC 25 April 2019
Temperature: 5.0°C (41°F)
Dewpoint: -9.0°C (16°F) [RH = 35%]
Pressure (altimeter): 29.97 inches Hg (1015.0 mb)
Winds: from the N (360 degrees) at 5 MPH (4 knots; 2.1 m/s)
Visibility: 6 or more miles (10+ km)
Ceiling: ceiling and visibility are OK
Clouds: unknown
Weather: no significant weather observed at this time

METAR text: ZYCC 251200Z 01002MPS CAVOK 07/M10 Q1015 NOSIG
Conditions at: ZYCC (CHANGCHUN , CN) observed 1200 UTC 25 April 2019
Temperature: 7.0°C (45°F)
Dewpoint: -10.0°C (14°F) [RH = 29%]
Pressure (altimeter): 29.97 inches Hg (1015.0 mb)
Winds: from the N (10 degrees) at 5 MPH (4 knots; 2.1 m/s)
Visibility: 6 or more miles (10+ km)
Ceiling: ceiling and visibility are OK
Clouds: unknown
Weather: no significant weather observed at this time

METAR text: ZYCC 251100Z 03003MPS CAVOK 10/M09 Q1014 NOSIG
Conditions at: ZYCC (CHANGCHUN , CN) observed 1100 UTC 25 April 2019
Temperature: 10.0°C (50°F)
Dewpoint: -9.0°C (16°F) [RH = 25%]
Pressure (altimeter): 29.94 inches Hg (1014.0 mb)
Winds: from the NNE (30 degrees) at 7 MPH (6 knots; 3.1 m/s)
Visibility: 6 or more miles (10+ km)
Ceiling: ceiling and visibility are OK
Clouds: unknown
Weather: no significant weather observed at this time

METAR text: ZYCC 251000Z 03004MPS 360V070 CAVOK 11/M10 Q1014 NOSIG
Conditions at: ZYCC (CHANGCHUN , CN) observed 1000 UTC 25 April 2019
Temperature: 11.0°C (52°F)
Dewpoint: -10.0°C (14°F) [RH = 22%]
Pressure (altimeter): 29.94 inches Hg (1014.0 mb)
Winds: from the NNE (30 degrees) at 9 MPH (8 knots; 4.1 m/s)
Visibility: 6 or more miles (10+ km)
Ceiling: ceiling and visibility are OK
Clouds: unknown
Weather: no significant weather observed at this time

METAR text: ZYCC 250900Z 03006MPS CAVOK 12/M12 Q1014 NOSIG
Conditions at: ZYCC (CHANGCHUN , CN) observed 0900 UTC 25 April 2019
Temperature: 12.0°C (54°F)
Dewpoint: -12.0°C (10°F) [RH = 17%]
Pressure (altimeter): 29.94 inches Hg (1014.0 mb)
Winds: from the NNE (30 degrees) at 14 MPH (12 knots; 6.2 m/s)
Visibility: 6 or more miles (10+ km)
Ceiling: ceiling and visibility are OK
Clouds: unknown
Weather: no significant weather observed at this time

METAR text: ZYCC 250800Z 04006MPS 010V080 CAVOK 13/M11 Q1014 NOSIG
Conditions at: ZYCC (CHANGCHUN , CN) observed 0800 UTC 25 April 2019
Temperature: 13.0°C (55°F)
Dewpoint: -11.0°C (12°F) [RH = 18%]
Pressure (altimeter): 29.94 inches Hg (1014.0 mb)
Winds: from the NE (40 degrees) at 14 MPH (12 knots; 6.2 m/s)
Visibility: 6 or more miles (10+ km)
Ceiling: ceiling and visibility are OK
Clouds: unknown
Weather: no significant weather observed at this time

METAR text: ZYCC 250700Z 03006MPS 330V070 CAVOK 13/M11 Q1014 NOSIG
Conditions at: ZYCC (CHANGCHUN , CN) observed 0700 UTC 25 April 2019
Temperature: 13.0°C (55°F)
Dewpoint: -11.0°C (12°F) [RH = 18%]
Pressure (altimeter): 29.94 inches Hg (1014.0 mb)
Winds: from the NNE (30 degrees) at 14 MPH (12 knots; 6.2 m/s)
Visibility: 6 or more miles (10+ km)
Ceiling: ceiling and visibility are OK
Clouds: unknown
Weather: no significant weather observed at this time

METAR text: ZYCC 250600Z 04006MPS 350V080 CAVOK 12/M11 Q1015 NOSIG
Conditions at: ZYCC (CHANGCHUN , CN) observed 0600 UTC 25 April 2019
Temperature: 12.0°C (54°F)
Dewpoint: -11.0°C (12°F) [RH = 19%]
Pressure (altimeter): 29.97 inches Hg (1015.0 mb)
Winds: from the NE (40 degrees) at 14 MPH (12 knots; 6.2 m/s)
Visibility: 6 or more miles (10+ km)
Ceiling: ceiling and visibility are OK
Clouds: unknown
Weather: no significant weather observed at this time

METAR text: ZYCC 250500Z 02006MPS 330V060 CAVOK 12/M11 Q1016 NOSIG
Conditions at: ZYCC (CHANGCHUN , CN) observed 0500 UTC 25 April 2019
Temperature: 12.0°C (54°F)
Dewpoint: -11.0°C (12°F) [RH = 19%]
Pressure (altimeter): 30.00 inches Hg (1016.0 mb)
Winds: from the NNE (20 degrees) at 14 MPH (12 knots; 6.2 m/s)
Visibility: 6 or more miles (10+ km)
Ceiling: ceiling and visibility are OK
Clouds: unknown
Weather: no significant weather observed at this time

METAR text: ZYCC 250400Z 03005MPS 350V070 CAVOK 12/M10 Q1016 NOSIG
Conditions at: ZYCC (CHANGCHUN , CN) observed 0400 UTC 25 April 2019
Temperature: 12.0°C (54°F)
Dewpoint: -10.0°C (14°F) [RH = 20%]
Pressure (altimeter): 30.00 inches Hg (1016.0 mb)
Winds: from the NNE (30 degrees) at 12 MPH (10 knots; 5.1 m/s)
Visibility: 6 or more miles (10+ km)
Ceiling: ceiling and visibility are OK
Clouds: unknown
Weather: no significant weather observed at this time

METAR text: ZYCC 250300Z 03005MPS 340V060 CAVOK 11/M10 Q1016 NOSIG
Conditions at: ZYCC (CHANGCHUN , CN) observed 0300 UTC 25 April 2019
Temperature: 11.0°C (52°F)
Dewpoint: -10.0°C (14°F) [RH = 22%]
Pressure (altimeter): 30.00 inches Hg (1016.0 mb)
Winds: from the NNE (30 degrees) at 12 MPH (10 knots; 5.1 m/s)
Visibility: 6 or more miles (10+ km)
Ceiling: ceiling and visibility are OK
Clouds: unknown
Weather: no significant weather observed at this time

METAR text: ZYCC 250200Z 03005MPS 350V070 CAVOK 11/M10 Q1016 NOSIG
Conditions at: ZYCC (CHANGCHUN , CN) observed 0200 UTC 25 April 2019
Temperature: 11.0°C (52°F)
Dewpoint: -10.0°C (14°F) [RH = 22%]
Pressure (altimeter): 30.00 inches Hg (1016.0 mb)
Winds: from the NNE (30 degrees) at 12 MPH (10 knots; 5.1 m/s)
Visibility: 6 or more miles (10+ km)
Ceiling: ceiling and visibility are OK
Clouds: unknown
Weather: no significant weather observed at this time

METAR text: ZYCC 250100Z 04004MPS 350V080 CAVOK 09/M08 Q1017 NOSIG
Conditions at: ZYCC (CHANGCHUN , CN) observed 0100 UTC 25 April 2019
Temperature: 9.0°C (48°F)
Dewpoint: -8.0°C (18°F) [RH = 29%]
Pressure (altimeter): 30.03 inches Hg (1017.0 mb)
Winds: from the NE (40 degrees) at 9 MPH (8 knots; 4.1 m/s)
Visibility: 6 or more miles (10+ km)
Ceiling: ceiling and visibility are OK
Clouds: unknown
Weather: no significant weather observed at this time

METAR text: ZYCC 250000Z 03003MPS 350V060 CAVOK 06/M09 Q1017 NOSIG
Conditions at: ZYCC (CHANGCHUN , CN) observed 0000 UTC 25 April 2019
Temperature: 6.0°C (43°F)
Dewpoint: -9.0°C (16°F) [RH = 33%]
Pressure (altimeter): 30.03 inches Hg (1017.0 mb)
Winds: from the NNE (30 degrees) at 7 MPH (6 knots; 3.1 m/s)
Visibility: 6 or more miles (10+ km)
Ceiling: ceiling and visibility are OK
Clouds: unknown
Weather: no significant weather observed at this time

METAR text: ZYCC 242300Z 35002MPS CAVOK 04/M10 Q1017 NOSIG
Conditions at: ZYCC (CHANGCHUN , CN) observed 2300 UTC 24 April 2019
Temperature: 4.0°C (39°F)
Dewpoint: -10.0°C (14°F) [RH = 35%]
Pressure (altimeter): 30.03 inches Hg (1017.0 mb)
Winds: from the N (350 degrees) at 5 MPH (4 knots; 2.1 m/s)
Visibility: 6 or more miles (10+ km)
Ceiling: ceiling and visibility are OK
Clouds: unknown
Weather: no significant weather observed at this time

METAR text: ZYCC 242200Z 34001MPS CAVOK 03/M10 Q1017 NOSIG
Conditions at: ZYCC (CHANGCHUN , CN) observed 2200 UTC 24 April 2019
Temperature: 3.0°C (37°F)
Dewpoint: -10.0°C (14°F) [RH = 38%]
Pressure (altimeter): 30.03 inches Hg (1017.0 mb)
Winds: from the NNW (340 degrees) at 2 MPH (2 knots; 1.0 m/s)
Visibility: 6 or more miles (10+ km)
Ceiling: ceiling and visibility are OK
Clouds: unknown
Weather: no significant weather observed at this time

METAR text: ZYCC 242100Z 36002MPS CAVOK 02/M10 Q1017 NOSIG
Conditions at: ZYCC (CHANGCHUN , CN) observed 2100 UTC 24 April 2019
Temperature: 2.0°C (36°F)
Dewpoint: -10.0°C (14°F) [RH = 41%]
Pressure (altimeter): 30.03 inches Hg (1017.0 mb)
Winds: from the N (360 degrees) at 5 MPH (4 knots; 2.1 m/s)
Visibility: 6 or more miles (10+ km)
Ceiling: ceiling and visibility are OK
Clouds: unknown
Weather: no significant weather observed at this time

METAR text: ZYCC 242000Z 01002MPS CAVOK 03/M11 Q1017 NOSIG
Conditions at: ZYCC (CHANGCHUN , CN) observed 2000 UTC 24 April 2019
Temperature: 3.0°C (37°F)
Dewpoint: -11.0°C (12°F) [RH = 35%]
Pressure (altimeter): 30.03 inches Hg (1017.0 mb)
Winds: from the N (10 degrees) at 5 MPH (4 knots; 2.1 m/s)
Visibility: 6 or more miles (10+ km)
Ceiling: ceiling and visibility are OK
Clouds: unknown
Weather: no significant weather observed at this time

METAR text: ZYCC 241900Z 00000MPS CAVOK 03/M12 Q1016 NOSIG
Conditions at: ZYCC (CHANGCHUN , CN) observed 1900 UTC 24 April 2019
Temperature: 3.0°C (37°F)
Dewpoint: -12.0°C (10°F) [RH = 32%]
Pressure (altimeter): 30.00 inches Hg (1016.0 mb)
Winds: calm
Visibility: 6 or more miles (10+ km)
Ceiling: ceiling and visibility are OK
Clouds: unknown
Weather: no significant weather observed at this time

METAR text: ZYCC 241800Z 35001MPS CAVOK 03/M13 Q1016 NOSIG
Conditions at: ZYCC (CHANGCHUN , CN) observed 1800 UTC 24 April 2019
Temperature: 3.0°C (37°F)
Dewpoint: -13.0°C ( 9°F) [RH = 30%]
Pressure (altimeter): 30.00 inches Hg (1016.0 mb)
Winds: from the N (350 degrees) at 2 MPH (2 knots; 1.0 m/s)
Visibility: 6 or more miles (10+ km)
Ceiling: ceiling and visibility are OK
Clouds: unknown
Weather: no significant weather observed at this time

METAR text: ZYCC 241700Z 01002MPS CAVOK 03/M13 Q1016 NOSIG
Conditions at: ZYCC (CHANGCHUN , CN) observed 1700 UTC 24 April 2019
Temperature: 3.0°C (37°F)
Dewpoint: -13.0°C ( 9°F) [RH = 30%]
Pressure (altimeter): 30.00 inches Hg (1016.0 mb)
Winds: from the N (10 degrees) at 5 MPH (4 knots; 2.1 m/s)
Visibility: 6 or more miles (10+ km)
Ceiling: ceiling and visibility are OK
Clouds: unknown
Weather: no significant weather observed at this time

METAR text: ZYCC 241600Z 01002MPS 9999 FEW030 04/M13 Q1017 NOSIG
Conditions at: ZYCC (CHANGCHUN , CN) observed 1600 UTC 24 April 2019
Temperature: 4.0°C (39°F)
Dewpoint: -13.0°C ( 9°F) [RH = 28%]
Pressure (altimeter): 30.03 inches Hg (1017.0 mb)
Winds: from the N (10 degrees) at 5 MPH (4 knots; 2.1 m/s)
Visibility: 6 or more miles (10+ km)
Ceiling: at least 12,000 feet AGL
Clouds: few clouds at 3000 feet AGL
Weather: no significant weather observed at this time

Forecast for: ZYCC (CHANGCHUN , CN)
Text: TAF ZYCC 251904Z 2600/2624 05006MPS 6000 NSC TX16/2606Z TN02/2621Z
Forecast period: 0000 UTC 26 April 2019 to 0000 UTC 27 April 2019
Forecast type: FROM: standard forecast or significant change
Winds: from the NE (50 degrees) at 14 MPH (12 knots; 6.2 m/s)
Visibility: 4 miles (6 km)
Ceiling: unknown
Clouds: missing
Weather: no significant weather forecast for this period